Terminal Aerodrome Forecast
Issued by NWS

Home | Current Version | Previous Version | Graphics & Text | Print | Product List | Glossary On
Versions: 1 2 3 4 5 6 7 8 9 10 11 12 13 14 15 16
000
FTUS43 KFGF 210924 AAA
TAFBJI
TAF AMD
KBJI 210924Z 2109/2206 03007KT P6SM OVC011
      TEMPO 2109/2111 3SM -DZ BR OVC008
     FM211100 02007KT 4SM -RA BR OVC008
     FM211700 31010KT 6SM -RA BR OVC015
     FM220200 30008KT P6SM OVC010=

USA.gov is the U.S. government's official web portal to all federal, state and local government web resources and services.